Boulogne, France

5:40 PM CEST on September 28, 2016 (GMT +0200)
Rue Ferdinand Buisson | | Change Station

Elev 22 ft 50.72 °N, 1.61 °E | Updated 6 minutes ago

Mostly Cloudy
Mostly Cloudy
66.7 °F
Feels Like 66.7 °F
N
1.2
Wind Variable Wind from NE
Gusts 4.3 mph

Today
High -- | Low -- °F
--% Chance of Precip.
Yesterday
High -- | Low -- °F
Precip. -- in
Pressure 30.30 in
Visibility 6.2 miles
Clouds Mostly Cloudy 1400 ft
Mostly Cloudy 2700 ft
Mostly Cloudy 6000 ft
Dew Point 59 °F
Humidity 76%
Rainfall 0.02 in
Snow Depth Not available.
7:49 AM 7:37 PM
Waning Crescent, 5% visible
METAR LFAT 281530Z AUTO 26011KT 220V290 9999 BKN014 BKN027 BKN060 18/14 Q1026 BECMG BKN015
Pressure 30.30 in
Visibility 6.2 miles
Clouds Mostly Cloudy 1400 ft
Mostly Cloudy 2700 ft
Mostly Cloudy 6000 ft
Dew Point 59 °F
Humidity 76%
Rainfall 0.02 in
Snow Depth Not available.
7:49 AM 7:37 PM
Waning Crescent, 5% visible
METAR LFAT 281530Z AUTO 26011KT 220V290 9999 BKN014 BKN027 BKN060 18/14 Q1026 BECMG BKN015

10-Day Weather Forecast

×

Almanac

Astronomy

Sep. 28, 2016 Rise Set
Actual Time
Civil Twilight
Nautical Twilight
Astronomical Twilight
Moon
Length of Visible Light
Length of Day
Tomorrow will be .
, % of the Moon is Illuminated

Today's Extremes

Country Highs Country Lows

Community

WunderPhotos

Upload Photos

1,942,279 photos uploaded!

WunderBlog® & News

Nearby

Air Quality

  Air Quality AQ Index Pollutant
Not available.

Snow Depth

Station Depth Elevation

Earthquake Activity

City Distance Mag. Time & Date
Minimum magnitude displayed is 2.5.

Coastal Water Temperatures

Place Temperature

Stations

Nearby Weather Stations

Station Location Temp. Windchill Dew Point Humidity Wind Precip. Elev Updated Type